createdAt,value
2018-05-15T00:01:32.289Z,1.53
2018-05-15T00:04:00.551Z,0.50
2018-05-15T00:06:30.170Z,0.50
2018-05-15T00:08:59.606Z,2.27
2018-05-15T00:11:28.094Z,0.43
2018-05-15T00:13:55.824Z,1.57
2018-05-15T00:16:23.459Z,1.70
2018-05-15T00:18:50.960Z,0.50
2018-05-15T00:21:18.468Z,1.60
2018-05-15T00:23:46.917Z,0.50
2018-05-15T00:26:15.192Z,0.60
2018-05-15T00:28:42.854Z,0.50
2018-05-15T00:31:15.075Z,0.77
2018-05-15T00:33:42.590Z,0.60
2018-05-15T00:36:13.052Z,2.00
2018-05-15T00:38:40.644Z,0.77
2018-05-15T00:41:27.635Z,0.73
2018-05-15T00:43:55.212Z,0.50
2018-05-15T00:46:22.715Z,1.70
2018-05-15T00:48:50.394Z,1.03
2018-05-15T00:51:17.898Z,0.50
2018-05-15T00:53:46.317Z,2.23
2018-05-15T00:56:14.028Z,1.93
2018-05-15T00:58:41.542Z,1.40
2018-05-15T01:01:09.115Z,1.30
2018-05-15T01:03:37.731Z,0.97
2018-05-15T01:06:05.318Z,0.40
2018-05-15T01:08:32.863Z,2.10
2018-05-15T01:11:00.502Z,0.40
2018-05-15T01:13:28.045Z,0.33
2018-05-15T01:15:55.635Z,0.83
2018-05-15T01:18:23.245Z,1.03
2018-05-15T01:20:50.759Z,0.73
2018-05-15T01:23:18.325Z,2.40
2018-05-15T01:25:45.923Z,0.50
2018-05-15T01:28:13.424Z,0.60
2018-05-15T01:30:41.887Z,0.50
2018-05-15T01:33:09.802Z,0.30
2018-05-15T01:35:38.231Z,0.20
2018-05-15T01:38:06.523Z,2.23
2018-05-15T01:40:34.048Z,0.20
2018-05-15T01:43:01.549Z,1.87
2018-05-15T01:45:30.056Z,0.43
2018-05-15T01:47:57.574Z,0.30
2018-05-15T01:50:25.079Z,0.30
2018-05-15T01:52:54.533Z,2.00
2018-05-15T01:55:22.043Z,0.40
2018-05-15T01:57:49.562Z,1.00
2018-05-15T02:00:17.075Z,1.30
2018-05-15T02:02:46.503Z,0.30
2018-05-15T02:05:14.081Z,1.33
2018-05-15T02:07:42.534Z,0.83
2018-05-15T02:10:10.030Z,0.43
2018-05-15T02:12:37.573Z,0.30
2018-05-15T02:15:06.125Z,0.40
2018-05-15T02:17:33.621Z,0.90
2018-05-15T02:20:01.107Z,0.40
2018-05-15T02:22:29.615Z,0.43
2018-05-15T02:24:57.219Z,0.50
2018-05-15T02:27:24.833Z,0.40
2018-05-15T02:29:53.322Z,0.70
2018-05-15T02:32:22.786Z,0.50
2018-05-15T02:34:51.227Z,0.53
2018-05-15T02:37:38.533Z,0.50
2018-05-15T02:40:06.101Z,0.40
2018-05-15T02:42:33.615Z,0.30
2018-05-15T02:45:01.292Z,1.27
2018-05-15T02:47:28.805Z,0.90
2018-05-15T02:49:57.233Z,0.57
2018-05-15T02:52:25.706Z,3.83
2018-05-15T02:54:53.211Z,0.90
2018-05-15T02:57:20.911Z,1.07
2018-05-15T02:59:49.230Z,2.27
2018-05-15T03:02:17.741Z,0.70
2018-05-15T03:04:45.345Z,0.90
2018-05-15T03:07:13.674Z,0.73
2018-05-15T03:09:41.247Z,0.80
2018-05-15T03:12:10.824Z,3.27
2018-05-15T03:14:39.378Z,1.17
2018-05-15T03:17:25.572Z,2.00
2018-05-15T03:19:53.106Z,0.73
2018-05-15T03:22:22.688Z,1.33
2018-05-15T03:24:50.313Z,0.97
2018-05-15T03:27:18.603Z,0.47
2018-05-15T03:29:46.161Z,1.60
2018-05-15T03:32:14.685Z,1.93
2018-05-15T03:34:42.258Z,1.17
2018-05-15T03:37:09.875Z,0.87
2018-05-15T03:39:37.491Z,0.60
2018-05-15T03:42:06.973Z,0.60
2018-05-15T03:44:35.305Z,1.53
2018-05-15T03:47:02.836Z,0.87
2018-05-15T03:49:30.445Z,3.00
2018-05-15T03:51:58.037Z,2.60
2018-05-15T03:54:26.361Z,3.40
2018-05-15T03:56:53.863Z,1.27
2018-05-15T03:59:22.342Z,5.60
2018-05-15T04:02:01.575Z,0.70
2018-05-15T04:04:40.814Z,0.60
2018-05-15T04:07:22.324Z,0.87
2018-05-15T04:09:49.929Z,2.47
2018-05-15T04:12:17.511Z,0.70
2018-05-15T04:14:45.138Z,1.50
2018-05-15T04:17:12.714Z,1.03
2018-05-15T04:19:40.216Z,0.43
2018-05-15T04:22:07.751Z,0.73
2018-05-15T04:24:35.401Z,2.40
2018-05-15T04:27:03.893Z,1.17
2018-05-15T04:29:31.465Z,0.80
2018-05-15T04:31:59.939Z,3.13
2018-05-15T04:34:29.594Z,1.67
2018-05-15T04:36:57.209Z,1.27
2018-05-15T04:39:43.322Z,3.43
2018-05-15T04:42:11.023Z,1.33
2018-05-15T04:44:39.383Z,3.07
2018-05-15T04:47:07.833Z,4.80
2018-05-15T04:49:35.396Z,2.67
2018-05-15T05:05:34.955Z,10.13
2018-05-15T05:08:03.333Z,5.07
2018-05-15T05:10:30.896Z,2.97
2018-05-15T05:12:58.536Z,12.27
2018-05-15T05:15:26.072Z,6.50
2018-05-15T05:17:53.660Z,3.70
2018-05-15T05:20:23.332Z,3.03
2018-05-15T05:22:50.838Z,2.63
2018-05-15T05:25:38.105Z,1.20
2018-05-15T05:28:05.609Z,2.37
2018-05-15T05:44:00.629Z,10.40
2018-05-15T05:46:50.607Z,5.40
2018-05-15T05:49:22.927Z,4.50
2018-05-15T05:51:51.385Z,11.17
2018-05-15T06:07:45.781Z,1.97
2018-05-15T06:10:15.264Z,2.40
2018-05-15T06:12:42.769Z,2.93
2018-05-15T06:15:12.284Z,1.70
2018-05-15T06:17:39.838Z,1.40
2018-05-15T06:20:07.350Z,1.47
2018-05-15T06:22:35.770Z,3.03
2018-05-15T06:25:05.239Z,4.27
2018-05-15T06:27:35.500Z,5.63
2018-05-15T06:30:03.099Z,3.20
2018-05-15T06:32:30.671Z,2.30
2018-05-15T06:34:59.232Z,2.47
2018-05-15T06:37:26.800Z,3.23
2018-05-15T06:39:54.327Z,2.63
2018-05-15T06:42:24.789Z,2.73
2018-05-15T06:44:53.217Z,2.10
2018-05-15T06:47:21.500Z,6.40
2018-05-15T06:49:49.774Z,4.20
2018-05-15T06:52:17.406Z,2.80
2018-05-15T06:54:44.928Z,3.37
2018-05-15T06:57:12.542Z,3.73
2018-05-15T06:59:40.188Z,2.70
2018-05-15T07:02:07.876Z,2.20
2018-05-15T07:04:35.467Z,2.20
2018-05-15T07:07:03.948Z,2.70
2018-05-15T07:09:31.473Z,2.47
2018-05-15T07:12:01.056Z,2.47
2018-05-15T07:14:29.322Z,2.67
2018-05-15T07:16:57.732Z,3.20
2018-05-15T07:19:25.269Z,2.60
2018-05-15T07:21:53.636Z,10.97
2018-05-15T07:24:40.211Z,2.73
2018-05-15T07:40:17.152Z,3.63
2018-05-15T07:42:46.593Z,3.17
2018-05-15T07:45:14.097Z,2.20
2018-05-15T07:47:41.643Z,2.93
2018-05-15T07:50:09.149Z,2.60
2018-05-15T07:52:37.621Z,2.47
2018-05-15T07:55:05.156Z,3.20
2018-05-15T07:57:33.412Z,4.30
2018-05-15T08:00:00.916Z,7.47
2018-05-15T08:02:29.481Z,4.90
2018-05-15T08:04:57.035Z,4.00
2018-05-15T08:07:24.527Z,2.60
2018-05-15T08:09:52.184Z,6.90
2018-05-15T08:12:21.489Z,4.43
2018-05-15T08:14:49.900Z,4.77
2018-05-15T08:17:17.547Z,7.00
2018-05-15T08:19:47.743Z,5.77
2018-05-15T08:22:16.153Z,7.93
2018-05-15T08:24:43.849Z,4.47
2018-05-15T08:27:11.516Z,3.73
2018-05-15T08:29:39.085Z,6.20
2018-05-15T08:32:07.367Z,6.73
2018-05-15T08:34:35.912Z,3.80
2018-05-15T08:37:04.260Z,5.30
2018-05-15T08:39:53.308Z,5.27
2018-05-15T08:42:20.856Z,4.90
2018-05-15T08:44:48.500Z,9.27
2018-05-15T08:47:16.047Z,8.33
2018-05-15T08:49:44.500Z,7.80
2018-05-15T08:52:12.017Z,8.83
2018-05-15T08:54:39.697Z,8.43
2018-05-15T08:57:07.275Z,10.77
2018-05-15T08:59:34.923Z,11.23
2018-05-15T09:02:03.416Z,9.43
2018-05-15T09:04:30.942Z,10.10
2018-05-15T09:06:59.424Z,9.60
2018-05-15T09:09:29.019Z,11.20
2018-05-15T09:11:56.511Z,9.80
2018-05-15T09:14:24.776Z,12.70
2018-05-15T09:16:53.385Z,11.73
2018-05-15T09:19:22.962Z,12.87
2018-05-15T09:22:09.096Z,11.27
2018-05-15T09:24:37.433Z,12.60
2018-05-15T09:27:04.936Z,11.03
2018-05-15T09:42:42.458Z,15.60
2018-05-15T09:45:29.724Z,21.63
2018-05-15T09:47:57.331Z,12.67
2018-05-15T10:03:51.471Z,17.67
2018-05-15T10:06:19.921Z,12.87
2018-05-15T10:08:47.470Z,10.57
2018-05-15T10:11:15.940Z,9.90
2018-05-15T10:13:43.465Z,11.30
2018-05-15T10:16:11.021Z,9.77
2018-05-15T10:18:38.575Z,7.20
2018-05-15T10:21:06.177Z,7.97
2018-05-15T10:23:33.685Z,6.07
2018-05-15T10:26:02.996Z,7.83
2018-05-15T10:28:32.218Z,6.07
2018-05-15T10:31:18.726Z,4.83
2018-05-15T10:33:46.725Z,6.17
2018-05-15T10:36:14.348Z,6.07
2018-05-15T10:38:41.866Z,6.67
2018-05-15T10:41:09.452Z,6.73
2018-05-15T10:43:37.057Z,3.03
2018-05-15T10:46:05.512Z,3.50
2018-05-15T10:48:34.734Z,5.03
2018-05-15T10:51:02.280Z,3.07
2018-05-15T10:53:30.732Z,3.30
2018-05-15T10:55:58.310Z,3.73
2018-05-15T10:58:25.841Z,6.23
2018-05-15T11:00:53.605Z,6.50
2018-05-15T11:03:24.159Z,4.63
2018-05-15T11:05:51.672Z,7.20
2018-05-15T11:08:20.192Z,7.17
2018-05-15T11:10:47.768Z,8.00
2018-05-15T11:13:16.280Z,7.13
2018-05-15T11:15:44.736Z,9.50
2018-05-15T11:18:24.005Z,6.47
2018-05-15T11:21:03.401Z,10.33
2018-05-15T11:23:42.674Z,6.73
2018-05-15T11:26:11.086Z,5.70
2018-05-15T11:28:38.696Z,5.60
2018-05-15T11:31:07.140Z,5.90
2018-05-15T11:33:35.649Z,7.10
2018-05-15T11:36:03.234Z,6.60
2018-05-15T11:38:30.725Z,6.07
2018-05-15T11:40:59.192Z,5.97
2018-05-15T11:43:28.730Z,6.33
2018-05-15T11:45:57.931Z,7.30
2018-05-15T11:48:26.898Z,6.50
2018-05-15T11:50:54.223Z,6.70
2018-05-15T11:53:23.536Z,9.23
2018-05-15T11:55:53.006Z,7.33
2018-05-15T11:58:20.782Z,7.87
2018-05-15T12:00:48.412Z,7.70
2018-05-15T12:03:17.169Z,8.53
2018-05-15T12:06:03.535Z,8.93
2018-05-15T12:08:32.060Z,10.47
2018-05-15T12:10:59.607Z,8.73
2018-05-15T12:13:27.184Z,9.73
2018-05-15T12:15:54.780Z,9.90
2018-05-15T12:31:48.408Z,10.17
2018-05-15T12:34:15.981Z,10.60
2018-05-15T12:36:44.387Z,10.33
2018-05-15T12:39:11.973Z,12.17
2018-05-15T12:41:41.235Z,11.07
2018-05-15T12:44:10.996Z,12.13
2018-05-15T12:46:39.635Z,11.73
2018-05-15T12:49:07.152Z,12.00
2018-05-15T12:51:36.703Z,14.23
2018-05-15T12:54:05.297Z,12.10
2018-05-15T12:56:32.797Z,12.30
2018-05-15T12:59:01.100Z,13.83
2018-05-15T13:01:28.713Z,13.57
2018-05-15T13:04:17.744Z,14.30
2018-05-15T13:06:47.241Z,13.40
2018-05-15T13:09:14.849Z,14.27
2018-05-15T13:11:42.426Z,19.13
2018-05-15T13:14:10.811Z,16.07
2018-05-15T13:16:39.299Z,15.13
2018-05-15T13:19:08.550Z,17.07
2018-05-15T13:21:36.263Z,17.40
2018-05-15T13:24:04.587Z,15.60
2018-05-15T13:26:32.120Z,16.40
2018-05-15T13:29:01.333Z,17.77
2018-05-15T13:31:28.857Z,16.60
2018-05-15T13:33:57.361Z,14.70
2018-05-15T13:36:25.928Z,15.10
2018-05-15T13:38:54.374Z,16.20
2018-05-15T13:41:21.901Z,18.20
2018-05-15T13:43:51.174Z,17.30
2018-05-15T13:46:20.608Z,16.70
2018-05-15T13:48:48.928Z,16.67
2018-05-15T13:51:16.442Z,13.93
2018-05-15T13:53:43.955Z,16.97
2018-05-15T13:56:11.593Z,16.87
2018-05-15T13:58:39.897Z,16.57
2018-05-15T14:01:26.218Z,17.90
2018-05-15T14:17:07.209Z,13.30
2018-05-15T14:19:36.695Z,14.17
2018-05-15T14:22:04.279Z,11.90
2018-05-15T14:24:32.868Z,12.53
2018-05-15T14:27:00.428Z,12.70
2018-05-15T14:29:29.725Z,11.30
2018-05-15T14:31:57.340Z,11.87
2018-05-15T14:34:24.896Z,12.43
2018-05-15T14:36:52.507Z,11.27
2018-05-15T14:39:22.007Z,11.87
2018-05-15T14:42:13.060Z,12.47
2018-05-15T14:44:41.361Z,13.27
2018-05-15T14:47:09.837Z,14.30
2018-05-15T14:49:37.413Z,17.07
2018-05-15T14:52:05.859Z,24.10
2018-05-15T14:54:53.132Z,14.20
2018-05-15T14:59:57.624Z,14.73
2018-05-15T15:02:25.150Z,21.37
2018-05-15T15:04:54.576Z,17.70
2018-05-15T15:07:23.097Z,16.97
2018-05-15T15:09:51.422Z,16.13
2018-05-15T15:12:38.883Z,13.80
2018-05-15T15:15:07.999Z,69.10
2018-05-15T15:17:36.289Z,17.67
2018-05-15T15:20:05.473Z,17.30
2018-05-15T15:22:33.175Z,91.83
2018-05-15T15:25:01.652Z,21.43
2018-05-15T15:27:31.131Z,17.37
2018-05-15T15:30:17.295Z,75.33
2018-05-15T15:32:44.952Z,19.63
2018-05-15T15:48:45.653Z,34.10
2018-05-15T15:51:14.169Z,23.73
2018-05-15T15:53:41.776Z,25.10
2018-05-15T15:56:11.367Z,22.70
2018-05-15T15:58:38.957Z,24.23
2018-05-15T16:01:06.496Z,27.37
2018-05-15T16:03:35.706Z,30.20
2018-05-15T16:06:04.077Z,18.57
2018-05-15T16:08:33.337Z,25.20
2018-05-15T16:11:00.864Z,17.47
2018-05-15T16:13:31.173Z,20.27
2018-05-15T16:16:18.218Z,20.30
2018-05-15T16:18:46.723Z,24.93
2018-05-15T16:21:15.287Z,20.97
2018-05-15T16:23:42.853Z,14.13
2018-05-15T16:26:12.291Z,24.67
2018-05-15T16:28:39.879Z,19.07
2018-05-15T16:31:08.316Z,21.83
2018-05-15T16:33:36.731Z,15.57
2018-05-15T16:36:06.173Z,14.63
2018-05-15T16:38:33.712Z,13.77
2018-05-15T16:41:03.127Z,14.20
2018-05-15T16:43:30.708Z,12.00
2018-05-15T16:45:58.352Z,10.20
2018-05-15T16:48:25.935Z,13.03
2018-05-15T16:50:53.435Z,13.03
2018-05-15T16:53:25.988Z,12.20
2018-05-15T16:55:53.434Z,13.70
2018-05-15T16:58:39.020Z,14.40
2018-05-15T17:01:06.547Z,16.63
2018-05-15T17:03:34.100Z,14.70
2018-05-15T17:06:01.669Z,17.37
2018-05-15T17:08:29.249Z,14.07
2018-05-15T17:10:58.809Z,12.67
2018-05-15T17:13:27.168Z,13.23
2018-05-15T17:15:55.473Z,14.67
2018-05-15T17:18:23.923Z,15.83
2018-05-15T17:20:53.448Z,20.50
2018-05-15T17:23:21.722Z,18.50
2018-05-15T17:25:49.294Z,20.50
2018-05-15T17:28:18.085Z,29.10
2018-05-15T17:30:47.280Z,26.87
2018-05-15T17:33:14.932Z,22.53
2018-05-15T17:35:42.507Z,21.13
2018-05-15T17:38:10.089Z,24.60
2018-05-15T17:40:38.443Z,22.10
2018-05-15T17:43:06.204Z,25.90
2018-05-15T17:45:35.152Z,25.63
2018-05-15T17:48:02.703Z,23.57
2018-05-15T17:50:31.911Z,23.70
2018-05-15T17:53:04.650Z,25.87
2018-05-15T17:55:33.165Z,23.93
2018-05-15T17:58:00.736Z,47.10
2018-05-15T18:00:29.011Z,29.20
2018-05-15T18:02:56.570Z,19.27
2018-05-15T18:05:26.099Z,21.47
2018-05-15T18:07:55.590Z,22.67
2018-05-15T18:10:41.792Z,19.40
2018-05-15T18:13:10.101Z,24.63
2018-05-15T18:15:38.658Z,24.37
2018-05-15T18:31:15.703Z,21.37
2018-05-15T18:33:44.194Z,16.30
2018-05-15T18:36:12.640Z,15.17
2018-05-15T18:38:40.210Z,15.37
2018-05-15T18:41:08.686Z,11.43
2018-05-15T18:43:36.222Z,11.17
2018-05-15T18:46:03.802Z,11.23
2018-05-15T18:48:31.320Z,11.50
2018-05-15T18:50:58.981Z,12.63
2018-05-15T18:53:26.545Z,11.87
2018-05-15T18:55:54.878Z,12.13
2018-05-15T18:58:23.323Z,13.67
2018-05-15T19:00:51.335Z,12.23
2018-05-15T19:03:19.635Z,13.23
2018-05-15T19:05:47.140Z,15.37
2018-05-15T19:08:14.694Z,15.50
2018-05-15T19:10:44.199Z,15.40
2018-05-15T19:13:12.643Z,12.97
2018-05-15T19:15:40.187Z,13.00
2018-05-15T19:18:07.917Z,15.00
2018-05-15T19:20:36.876Z,15.87
2018-05-15T19:23:04.425Z,16.00
2018-05-15T19:25:37.742Z,13.43
2018-05-15T19:28:05.336Z,11.10
2018-05-15T19:30:33.876Z,12.43
2018-05-15T19:33:04.072Z,14.70
2018-05-15T19:35:38.213Z,15.37
2018-05-15T19:38:05.756Z,16.97
2018-05-15T19:40:33.308Z,15.40
2018-05-15T19:43:00.930Z,14.47
2018-05-15T19:45:28.562Z,14.87
2018-05-15T19:47:56.105Z,17.77
2018-05-15T19:50:24.636Z,14.40
2018-05-15T19:52:52.187Z,18.57
2018-05-15T19:55:20.653Z,16.30
2018-05-15T19:57:49.016Z,13.60
2018-05-15T20:00:16.530Z,12.13
2018-05-15T20:02:45.001Z,15.47
2018-05-15T20:05:14.297Z,15.00
2018-05-15T20:07:45.729Z,16.13
2018-05-15T20:10:13.332Z,12.53
2018-05-15T20:12:40.923Z,12.00
2018-05-15T20:15:08.446Z,11.03
2018-05-15T20:17:37.636Z,14.03
2018-05-15T20:20:05.194Z,14.67
2018-05-15T20:38:42.741Z,15.10
2018-05-15T20:41:15.265Z,16.87
2018-05-15T20:43:43.615Z,17.13
2018-05-15T20:46:13.388Z,21.40
2018-05-15T20:48:40.931Z,16.07
2018-05-15T20:51:28.089Z,20.13
2018-05-15T20:53:55.618Z,18.07
2018-05-15T20:56:25.083Z,21.03
2018-05-15T20:58:52.663Z,23.53
2018-05-15T21:01:20.235Z,23.20
2018-05-15T21:03:48.684Z,19.80
2018-05-15T21:06:16.192Z,22.40
2018-05-15T21:08:46.435Z,24.40
2018-05-15T21:11:15.949Z,18.83
2018-05-15T21:13:43.475Z,21.70
2018-05-15T21:16:11.056Z,19.93
2018-05-15T21:18:40.255Z,17.57
2018-05-15T21:21:09.543Z,21.90
2018-05-15T21:23:38.064Z,19.80
2018-05-15T21:26:05.592Z,20.83
2018-05-15T21:28:33.104Z,21.00
2018-05-15T21:31:00.643Z,19.30
2018-05-15T21:33:30.837Z,23.73
2018-05-15T21:35:58.461Z,22.07
2018-05-15T21:38:26.017Z,22.33
2018-05-15T21:40:55.584Z,21.00
2018-05-15T21:43:24.049Z,18.27
2018-05-15T21:45:51.610Z,21.97
2018-05-15T21:48:20.038Z,19.37
2018-05-15T21:50:48.486Z,21.50
2018-05-15T21:53:16.128Z,22.90
2018-05-15T21:55:44.589Z,25.87
2018-05-15T21:58:12.139Z,20.03
2018-05-15T22:00:41.040Z,22.20
2018-05-15T22:03:10.294Z,20.80
2018-05-15T22:05:42.804Z,22.13
2018-05-15T22:08:12.228Z,20.80
2018-05-15T22:10:39.792Z,23.63
2018-05-15T22:13:19.863Z,19.70
2018-05-15T22:16:00.183Z,15.63
2018-05-15T22:18:39.513Z,18.13
2018-05-15T22:21:20.732Z,20.37
2018-05-15T22:23:47.761Z,17.23
2018-05-15T22:26:16.112Z,16.47
2018-05-15T22:28:43.672Z,19.40
2018-05-15T22:31:12.216Z,17.57
2018-05-15T22:33:40.242Z,18.30
2018-05-15T22:36:26.523Z,20.53
2018-05-15T22:38:54.014Z,19.47
2018-05-15T22:41:22.517Z,19.60
2018-05-15T22:57:03.965Z,14.40
2018-05-15T22:59:33.187Z,14.50
2018-05-15T23:02:01.442Z,14.93
2018-05-15T23:04:29.130Z,11.17
2018-05-15T23:06:59.350Z,10.60
2018-05-15T23:09:28.820Z,10.50
2018-05-15T23:11:56.359Z,10.77
2018-05-15T23:14:25.869Z,10.80
2018-05-15T23:16:54.353Z,11.27
2018-05-15T23:19:21.959Z,10.63
2018-05-15T23:21:49.503Z,10.33
2018-05-15T23:24:17.015Z,10.77
2018-05-15T23:26:45.322Z,10.77
2018-05-15T23:29:12.850Z,10.03
2018-05-15T23:31:40.412Z,9.30
2018-05-15T23:34:08.732Z,9.70
2018-05-15T23:36:37.219Z,10.23
2018-05-15T23:39:05.561Z,8.87
2018-05-15T23:41:35.080Z,8.93
2018-05-15T23:44:04.287Z,8.23
2018-05-15T23:46:33.488Z,10.53
2018-05-15T23:49:02.720Z,9.60
2018-05-15T23:51:30.266Z,9.63
2018-05-15T23:53:57.960Z,13.30
2018-05-15T23:56:27.416Z,13.20
2018-05-15T23:58:56.938Z,9.37
